Time;durP1;ratioP1;P1;durP2;ratioP2;P2;SDS_P1;SDS_P2;PMS_P1;PMS_P2;Temp;Humidity;BMP_temperature;BMP_pressure;BME280_temperature;BME280_humidity;BME280_pressure;Samples;Min_cycle;Max_cycle;Signal;HPM_P1;HPM_P2
2022/01/08 00:00:21;;;;;;;;;;;0.80;99.90;;;;;;4989072;28;19927;-81
2022/01/08 00:02:51;;;;;;;;;;;1.90;99.90;;;;;;4978298;28;19934;-82
2022/01/08 00:05:25;;;;;;;;;;;1.90;99.90;;;;;;4982897;28;19941;-81
2022/01/08 00:07:58;;;;;;;;;;;3.50;99.90;;;;;;4653015;28;9999847;-84
2022/01/08 00:10:31;;;;;;;;;;;2.20;99.90;;;;;;4980195;28;19946;-82
2022/01/08 00:13:03;;;;;;;;;;;1.80;99.90;;;;;;4983199;28;19930;-82
2022/01/08 00:15:32;;;;;;;;;;;3.50;99.90;;;;;;4990456;28;20296;-83
2022/01/08 00:18:00;;;;;;;;;;;1.80;99.90;;;;;;4993054;28;21065;-83
2022/01/08 00:20:28;;;;;;;;;;;1.80;99.90;;;;;;5001018;28;19948;-83
2022/01/08 00:26:41;;;;;;;;;;;1.90;99.90;;;;;;4975141;28;20127;-82
2022/01/08 00:29:14;;;;;;;;;;;2.00;99.90;;;;;;4973205;28;19941;-81
2022/01/08 00:31:46;;;;;;;;;;;1.90;99.90;;;;;;4979911;28;19929;-82
2022/01/08 00:34:23;;;;;;;;;;;1.90;99.90;;;;;;4986227;28;19930;-81
2022/01/08 00:36:52;;;;;;;;;;;1.90;99.90;;;;;;4998375;28;19930;-81
2022/01/08 00:39:20;;;;;;;;;;;1.90;99.90;;;;;;4975715;28;19929;-81
2022/01/08 00:41:48;;;;;;;;;;;2.00;99.90;;;;;;4993177;28;19926;-82
2022/01/08 00:44:42;;;;;;;;;;;1.90;99.90;;;;;;4979126;28;19937;-82
2022/01/08 00:47:13;;;;;;;;;;;1.90;99.90;;;;;;4994488;28;19926;-82
2022/01/08 00:49:43;;;;;;;;;;;2.10;99.90;;;;;;4961002;28;19926;-81
2022/01/08 00:52:12;;;;;;;;;;;3.00;99.90;;;;;;4958302;28;19930;-84
2022/01/08 00:54:41;;;;;;;;;;;2.00;99.90;;;;;;4963901;28;19941;-81
2022/01/08 00:57:10;;;;;;;;;;;2.10;99.90;;;;;;4980034;28;19930;-80
2022/01/08 00:59:38;;;;;;;;;;;2.00;99.90;;;;;;4947863;29;19927;-82
2022/01/08 01:02:07;;;;;;;;;;;2.10;99.90;;;;;;4932363;28;19931;-83
2022/01/08 01:04:36;;;;;;;;;;;2.00;99.90;;;;;;4965345;28;19931;-83
2022/01/08 01:07:06;;;;;;;;;;;2.10;99.90;;;;;;4980098;28;19930;-83
2022/01/08 01:09:34;;;;;;;;;;;2.00;99.90;;;;;;4964029;28;19942;-83
2022/01/08 01:12:03;;;;;;;;;;;2.30;99.90;;;;;;4932721;29;20411;-80
2022/01/08 01:14:31;;;;;;;;;;;2.00;99.90;;;;;;4964410;29;19947;-81
2022/01/08 01:16:59;;;;;;;;;;;2.20;99.90;;;;;;4959730;29;19931;-82
2022/01/08 01:19:30;;;;;;;;;;;2.30;99.90;;;;;;4950975;29;19926;-81
2022/01/08 01:22:00;;;;;;;;;;;2.00;99.90;;;;;;4946755;29;19927;-82
2022/01/08 01:24:29;;;;;;;;;;;2.00;99.90;;;;;;4933953;29;20199;-82
2022/01/08 01:29:46;;;;;;;;;;;2.10;99.90;;;;;;4963002;28;19931;-81
2022/01/08 01:49:05;;;;;;;;;;;2.50;99.90;;;;;;4961479;28;19952;-81
2022/01/08 01:51:34;;;;;;;;;;;2.50;99.90;;;;;;4934714;29;19934;-81
2022/01/08 01:54:03;;;;;;;;;;;2.60;99.90;;;;;;4959656;28;19938;-81
2022/01/08 01:56:34;;;;;;;;;;;2.60;99.90;;;;;;4945998;29;19934;-83
2022/01/08 01:59:04;;;;;;;;;;;2.70;99.90;;;;;;4978520;28;19930;-81
2022/01/08 02:01:33;;;;;;;;;;;2.90;99.90;;;;;;4964020;28;19930;-81
2022/01/08 02:04:01;;;;;;;;;;;2.70;99.90;;;;;;4962382;28;19934;-81
2022/01/08 02:06:30;;;;;;;;;;;2.80;99.90;;;;;;4962796;28;19937;-81
2022/01/08 02:08:59;;;;;;;;;;;2.70;99.90;;;;;;4946035;29;19927;-81
2022/01/08 02:11:27;;;;;;;;;;;2.80;99.90;;;;;;4962421;28;19930;-82
2022/01/08 02:14:02;;;;;;;;;;;2.70;99.90;;;;;;4960055;28;19957;-83
2022/01/08 02:16:31;;;;;;;;;;;2.70;99.90;;;;;;4947192;29;19937;-84
2022/01/08 02:18:59;;;;;;;;;;;2.80;99.90;;;;;;4959765;28;19940;-81
2022/01/08 02:21:28;;;;;;;;;;;2.80;99.90;;;;;;4952700;28;19934;-82
2022/01/08 02:23:56;;;;;;;;;;;2.80;99.90;;;;;;4944217;29;19930;-82
2022/01/08 02:26:26;;;;;;;;;;;2.80;99.90;;;;;;4957345;28;19931;-81
2022/01/08 02:28:54;;;;;;;;;;;2.90;99.90;;;;;;4943236;29;19938;-81
2022/01/08 02:31:23;;;;;;;;;;;2.90;99.90;;;;;;4958337;28;19946;-84
2022/01/08 02:33:54;;;;;;;;;;;2.90;99.90;;;;;;4944432;29;20455;-81
2022/01/08 02:36:26;;;;;;;;;;;3.10;99.90;;;;;;4927273;29;19926;-81
2022/01/08 02:38:57;;;;;;;;;;;3.00;99.90;;;;;;4958635;28;19941;-81
2022/01/08 02:41:27;;;;;;;;;;;3.10;99.90;;;;;;4946227;29;19931;-82
2022/01/08 02:43:55;;;;;;;;;;;3.10;99.90;;;;;;4974162;28;19930;-83
2022/01/08 02:46:23;;;;;;;;;;;3.20;99.90;;;;;;4966209;28;19937;-82
2022/01/08 02:48:53;;;;;;;;;;;3.50;99.90;;;;;;4952851;28;19936;-82
2022/01/08 02:51:26;;;;;;;;;;;1.70;99.90;;;;;;4968052;28;19937;-82
2022/01/08 02:53:55;;;;;;;;;;;3.20;99.90;;;;;;4967244;28;19930;-83
2022/01/08 02:56:23;;;;;;;;;;;3.50;99.90;;;;;;4984258;28;20327;-81
2022/01/08 02:58:54;;;;;;;;;;;3.30;99.90;;;;;;5004239;28;20270;-81
2022/01/08 03:01:25;;;;;;;;;;;3.20;99.90;;;;;;4989035;28;19930;-80
2022/01/08 03:03:56;;;;;;;;;;;3.40;99.90;;;;;;4964387;28;19932;-81
2022/01/08 03:06:25;;;;;;;;;;;3.70;99.90;;;;;;4970935;28;19937;-82
2022/01/08 03:08:53;;;;;;;;;;;3.40;99.90;;;;;;4963895;29;19930;-82
2022/01/08 03:11:22;;;;;;;;;;;3.50;99.90;;;;;;4964907;28;19930;-83
2022/01/08 03:13:50;;;;;;;;;;;3.40;99.90;;;;;;4969999;28;19952;-81
2022/01/08 03:16:18;;;;;;;;;;;3.60;99.90;;;;;;4975467;28;19934;-82
2022/01/08 03:18:48;;;;;;;;;;;3.60;99.90;;;;;;4988741;28;19937;-81
2022/01/08 03:21:20;;;;;;;;;;;3.40;99.90;;;;;;4972182;28;19946;-84
2022/01/08 03:24:01;;;;;;;;;;;3.40;99.90;;;;;;4971042;28;19926;-81
2022/01/08 03:26:33;;;;;;;;;;;3.60;99.90;;;;;;4948729;28;19930;-81
2022/01/08 03:29:02;;;;;;;;;;;3.40;99.90;;;;;;4985730;28;19930;-83
2022/01/08 03:31:31;;;;;;;;;;;3.50;99.90;;;;;;4969869;28;19926;-83
2022/01/08 03:34:10;;;;;;;;;;;3.50;99.90;;;;;;4970419;28;19945;-82
2022/01/08 03:36:38;;;;;;;;;;;3.50;99.90;;;;;;4978420;28;19926;-82
2022/01/08 03:39:09;;;;;;;;;;;3.60;99.90;;;;;;5002115;28;19926;-82
2022/01/08 03:41:42;;;;;;;;;;;3.50;99.90;;;;;;4994890;28;20429;-81
2022/01/08 03:44:10;;;;;;;;;;;3.60;99.90;;;;;;5002596;28;20520;-83
2022/01/08 03:46:43;;;;;;;;;;;3.60;99.90;;;;;;4986383;28;19930;-83
2022/01/08 03:49:22;;;;;;;;;;;3.60;99.90;;;;;;4966999;28;19926;-83
2022/01/08 03:51:51;;;;;;;;;;;3.60;99.90;;;;;;4980981;28;19930;-83
2022/01/08 03:54:22;;;;;;;;;;;3.70;99.90;;;;;;4987583;28;19930;-82
2022/01/08 03:56:49;;;;;;;;;;;3.70;99.90;;;;;;4986069;28;19926;-82
2022/01/08 03:59:17;;;;;;;;;;;3.90;99.90;;;;;;4954919;28;19948;-83
2022/01/08 04:01:46;;;;;;;;;;;3.70;99.90;;;;;;4992728;28;19926;-81
2022/01/08 04:04:17;;;;;;;;;;;3.70;99.90;;;;;;5010913;28;19926;-82
2022/01/08 04:06:50;;;;;;;;;;;3.80;99.90;;;;;;4993761;28;19932;-83
2022/01/08 04:09:18;;;;;;;;;;;3.80;99.90;;;;;;4998703;28;19926;-83
2022/01/08 04:11:47;;;;;;;;;;;3.80;99.90;;;;;;4980709;28;19926;-82
2022/01/08 04:14:21;;;;;;;;;;;3.90;99.90;;;;;;4985260;28;19926;-84
2022/01/08 04:16:53;;;;;;;;;;;4.00;99.90;;;;;;4985057;28;20002;-81
2022/01/08 04:19:21;;;;;;;;;;;4.00;99.90;;;;;;4986041;28;19926;-83
2022/01/08 04:22:09;;;;;;;;;;;4.00;99.90;;;;;;5001587;28;19937;-81
2022/01/08 04:24:37;;;;;;;;;;;4.20;99.90;;;;;;4987335;28;19932;-82
2022/01/08 04:27:06;;;;;;;;;;;4.10;99.90;;;;;;4987335;28;19926;-81
2022/01/08 04:29:34;;;;;;;;;;;4.10;99.90;;;;;;4970134;28;19930;-80
2022/01/08 04:32:03;;;;;;;;;;;4.10;99.90;;;;;;4969369;28;19926;-82
2022/01/08 04:34:30;;;;;;;;;;;4.20;99.90;;;;;;4985677;28;19930;-84
2022/01/08 04:36:58;;;;;;;;;;;4.30;99.90;;;;;;4969148;28;19941;-81
2022/01/08 04:39:28;;;;;;;;;;;4.30;99.90;;;;;;4984821;28;19926;-81
2022/01/08 04:42:22;;;;;;;;;;;4.40;99.90;;;;;;4984982;28;19926;-83
2022/01/08 04:44:52;;;;;;;;;;;4.30;99.90;;;;;;5001639;28;19930;-82
2022/01/08 04:47:21;;;;;;;;;;;4.30;99.90;;;;;;5001339;28;19933;-81
2022/01/08 04:49:49;;;;;;;;;;;4.40;99.90;;;;;;4994176;28;19929;-82
2022/01/08 04:52:17;;;;;;;;;;;4.40;99.90;;;;;;5004896;28;19926;-84
2022/01/08 04:54:45;;;;;;;;;;;4.40;99.90;;;;;;5005372;28;19930;-82
2022/01/08 04:57:13;;;;;;;;;;;4.70;99.90;;;;;;4988597;28;19930;-82
2022/01/08 05:00:07;;;;;;;;;;;4.50;99.90;;;;;;4967974;28;19932;-81
2022/01/08 05:02:37;;;;;;;;;;;4.50;99.90;;;;;;4628186;28;10000230;-83
2022/01/08 05:05:06;;;;;;;;;;;4.50;99.90;;;;;;4971813;28;19926;-84
2022/01/08 05:07:35;;;;;;;;;;;4.50;99.90;;;;;;4988599;28;19936;-81
2022/01/08 05:10:07;;;;;;;;;;;4.60;99.90;;;;;;5003347;28;19929;-82
2022/01/08 05:12:44;;;;;;;;;;;4.60;99.90;;;;;;5004585;28;20403;-82
2022/01/08 05:15:22;;;;;;;;;;;4.60;99.90;;;;;;4989629;28;19930;-82
2022/01/08 05:18:17;;;;;;;;;;;4.70;99.90;;;;;;4990121;28;20205;-82
2022/01/08 05:20:58;;;;;;;;;;;4.70;99.90;;;;;;5005291;28;19926;-83
2022/01/08 05:23:27;;;;;;;;;;;4.70;99.90;;;;;;5004269;28;20359;-81
2022/01/08 05:25:56;;;;;;;;;;;4.70;99.90;;;;;;4970953;28;19925;-84
2022/01/08 05:28:27;;;;;;;;;;;4.80;99.90;;;;;;4987214;28;19937;-81
2022/01/08 05:30:55;;;;;;;;;;;5.10;99.90;;;;;;5004463;28;20005;-81
2022/01/08 05:33:23;;;;;;;;;;;4.90;99.90;;;;;;5003303;28;19941;-82
2022/01/08 05:35:52;;;;;;;;;;;4.90;99.90;;;;;;4980810;28;19932;-81
2022/01/08 05:38:25;;;;;;;;;;;5.00;99.90;;;;;;5005093;28;19932;-81
2022/01/08 05:40:56;;;;;;;;;;;5.10;99.90;;;;;;4970861;28;19933;-81
2022/01/08 05:43:28;;;;;;;;;;;5.00;99.90;;;;;;4986318;28;19937;-81
2022/01/08 05:45:58;;;;;;;;;;;5.10;99.90;;;;;;5005295;28;19926;-81
2022/01/08 05:48:27;;;;;;;;;;;5.10;99.90;;;;;;4986482;28;19933;-82
2022/01/08 05:50:55;;;;;;;;;;;5.20;99.90;;;;;;4981876;28;20556;-84
2022/01/08 05:53:29;;;;;;;;;;;5.20;99.90;;;;;;4974882;28;20021;-81
2022/01/08 05:55:57;;;;;;;;;;;5.40;99.90;;;;;;4953380;28;19933;-81
2022/01/08 05:58:24;;;;;;;;;;;5.40;99.90;;;;;;4966528;28;19932;-82
2022/01/08 06:00:53;;;;;;;;;;;8.50;99.90;;;;;;4983996;28;19937;-83
2022/01/08 06:03:26;;;;;;;;;;;5.60;99.90;;;;;;4950411;28;19930;-83
2022/01/08 06:05:56;;;;;;;;;;;5.70;99.90;;;;;;4966097;28;19930;-80
2022/01/08 06:08:27;;;;;;;;;;;5.80;99.90;;;;;;4965943;28;19930;-84
2022/01/08 06:10:55;;;;;;;;;;;5.80;99.90;;;;;;4983302;28;19930;-81
2022/01/08 06:13:25;;;;;;;;;;;5.90;99.90;;;;;;4957008;28;19926;-80
2022/01/08 06:15:53;;;;;;;;;;;5.90;99.90;;;;;;4964309;28;19931;-80
2022/01/08 06:18:22;;;;;;;;;;;5.90;99.90;;;;;;4964599;28;19927;-83
2022/01/08 06:21:02;;;;;;;;;;;;;;;;;;;;;
2022/01/08 06:23:30;;;;;;;;;;;6.40;99.90;;;;;;4978911;28;19934;-81
2022/01/08 06:25:59;;;;;;;;;;;7.20;99.90;;;;;;4975502;28;20363;-82
2022/01/08 06:28:28;;;;;;;;;;;6.10;99.90;;;;;;4997582;28;19926;-82
2022/01/08 06:30:56;;;;;;;;;;;6.10;99.90;;;;;;4997940;28;20478;-82
2022/01/08 06:33:25;;;;;;;;;;;6.10;99.90;;;;;;4984472;28;20329;-82
2022/01/08 06:35:53;;;;;;;;;;;6.10;99.90;;;;;;4999455;28;19930;-82
2022/01/08 06:38:21;;;;;;;;;;;6.20;99.90;;;;;;4982398;28;19927;-82
2022/01/08 06:40:51;;;;;;;;;;;6.30;99.90;;;;;;5000325;28;19937;-82
2022/01/08 06:43:19;;;;;;;;;;;6.20;99.90;;;;;;4968750;28;19926;-83
2022/01/08 06:45:48;;;;;;;;;;;5.20;99.90;;;;;;4985472;28;19926;-84
2022/01/08 06:48:22;;;;;;;;;;;6.20;99.90;;;;;;5001844;28;19937;-82
2022/01/08 06:50:52;;;;;;;;;;;6.40;99.90;;;;;;4987451;28;19941;-83
2022/01/08 06:53:20;;;;;;;;;;;6.30;99.90;;;;;;4986328;28;19930;-80
2022/01/08 06:55:49;;;;;;;;;;;6.20;99.90;;;;;;4985533;28;19930;-81
2022/01/08 06:58:21;;;;;;;;;;;6.20;99.90;;;;;;4986484;28;19945;-81
2022/01/08 07:00:50;;;;;;;;;;;6.20;99.90;;;;;;4985068;28;19930;-81
2022/01/08 07:03:18;;;;;;;;;;;6.20;99.90;;;;;;4985295;28;19933;-81
2022/01/08 07:05:46;;;;;;;;;;;6.20;99.90;;;;;;4985323;28;19930;-80
2022/01/08 07:08:15;;;;;;;;;;;6.20;99.90;;;;;;4989309;28;19926;-82
2022/01/08 07:10:43;;;;;;;;;;;6.30;99.90;;;;;;4969215;28;19936;-81
2022/01/08 07:13:14;;;;;;;;;;;6.30;99.90;;;;;;4981605;28;19933;-82
2022/01/08 07:15:47;;;;;;;;;;;6.30;99.90;;;;;;4987712;28;20004;-82
2022/01/08 07:18:19;;;;;;;;;;;6.30;99.90;;;;;;4954588;28;19934;-82
2022/01/08 07:20:49;;;;;;;;;;;6.40;99.90;;;;;;4953679;28;19932;-81
2022/01/08 07:23:17;;;;;;;;;;;6.40;99.90;;;;;;4983386;28;19926;-81
2022/01/08 07:25:45;;;;;;;;;;;6.50;99.90;;;;;;4961578;28;19930;-81
2022/01/08 07:28:15;;;;;;;;;;;6.20;99.90;;;;;;4984845;28;20044;-83
2022/01/08 07:30:46;;;;;;;;;;;6.60;99.90;;;;;;4970310;28;20380;-82
2022/01/08 07:33:17;;;;;;;;;;;6.00;99.90;;;;;;4987524;28;19926;-82
2022/01/08 07:35:50;;;;;;;;;;;6.70;99.90;;;;;;4985755;28;19926;-82
2022/01/08 07:38:23;;;;;;;;;;;6.70;99.90;;;;;;4985666;28;19930;-81
2022/01/08 07:40:52;;;;;;;;;;;6.90;99.90;;;;;;4963426;28;19933;-82
2022/01/08 07:43:21;;;;;;;;;;;5.70;99.90;;;;;;4984483;28;19953;-81
2022/01/08 07:45:49;;;;;;;;;;;5.70;99.90;;;;;;4986249;28;19930;-83
2022/01/08 07:48:20;;;;;;;;;;;6.90;99.90;;;;;;4963282;28;19932;-85
2022/01/08 07:50:50;;;;;;;;;;;6.90;99.90;;;;;;4962675;28;19930;-82
2022/01/08 07:53:19;;;;;;;;;;;6.90;99.90;;;;;;4984946;28;19933;-81
2022/01/08 07:55:47;;;;;;;;;;;7.00;99.90;;;;;;4968260;28;19926;-83
2022/01/08 07:58:20;;;;;;;;;;;7.40;99.90;;;;;;4968768;28;19934;-81
2022/01/08 08:00:51;;;;;;;;;;;7.10;99.90;;;;;;4969300;28;19926;-82
2022/01/08 08:03:19;;;;;;;;;;;7.10;99.90;;;;;;4984673;28;19930;-81
2022/01/08 08:05:47;;;;;;;;;;;7.30;99.90;;;;;;4984274;28;19933;-82
2022/01/08 08:08:16;;;;;;;;;;;6.30;99.90;;;;;;4967908;28;19930;-81
2022/01/08 08:10:50;;;;;;;;;;;7.30;99.90;;;;;;4984528;28;19932;-82
2022/01/08 08:13:18;;;;;;;;;;;7.30;99.90;;;;;;4985144;28;19930;-83
2022/01/08 08:15:47;;;;;;;;;;;7.40;99.90;;;;;;4952298;28;19936;-82
2022/01/08 08:18:15;;;;;;;;;;;7.40;99.90;;;;;;4959707;28;19930;-82
2022/01/08 08:20:43;;;;;;;;;;;7.50;99.90;;;;;;4952165;28;19953;-82
2022/01/08 08:23:11;;;;;;;;;;;8.40;99.90;;;;;;4952517;28;19930;-80
2022/01/08 08:25:39;;;;;;;;;;;7.60;99.90;;;;;;4951875;28;19932;-83
2022/01/08 08:28:10;;;;;;;;;;;7.70;99.90;;;;;;4966628;28;19926;-82
2022/01/08 08:30:40;;;;;;;;;;;7.60;99.90;;;;;;4993349;28;19926;-80
2022/01/08 08:33:12;;;;;;;;;;;7.70;99.90;;;;;;4999985;28;19945;-81
2022/01/08 08:35:47;;;;;;;;;;;7.70;99.90;;;;;;4966955;28;19941;-81
2022/01/08 08:38:16;;;;;;;;;;;7.70;99.90;;;;;;4953700;28;19934;-81
2022/01/08 08:40:44;;;;;;;;;;;7.80;99.90;;;;;;4965670;28;19933;-81
2022/01/08 08:43:21;;;;;;;;;;;7.80;99.90;;;;;;4970837;28;19933;-82
2022/01/08 08:45:50;;;;;;;;;;;7.90;99.90;;;;;;4979181;28;20322;-81
2022/01/08 08:48:20;;;;;;;;;;;7.90;99.90;;;;;;4975966;28;19931;-80
2022/01/08 08:50:54;;;;;;;;;;;8.10;99.90;;;;;;4982829;28;19926;-81
2022/01/08 08:53:24;;;;;;;;;;;7.90;99.90;;;;;;4984283;28;19933;-82
2022/01/08 08:55:52;;;;;;;;;;;8.00;99.90;;;;;;4995310;28;19934;-81
2022/01/08 08:58:21;;;;;;;;;;;8.00;99.90;;;;;;5000430;28;19936;-82
2022/01/08 09:00:48;;;;;;;;;;;8.10;99.90;;;;;;4990675;28;19926;-81
2022/01/08 09:03:17;;;;;;;;;;;8.00;99.90;;;;;;4974787;28;19949;-83
2022/01/08 09:05:45;;;;;;;;;;;8.20;99.90;;;;;;4991752;28;20274;-81
2022/01/08 09:08:13;;;;;;;;;;;8.30;99.90;;;;;;4966298;28;19926;-81
2022/01/08 09:10:41;;;;;;;;;;;8.30;99.90;;;;;;4985624;28;20747;-81
2022/01/08 09:13:09;;;;;;;;;;;8.30;99.90;;;;;;4977144;28;20686;-83
2022/01/08 09:15:41;;;;;;;;;;;8.50;99.90;;;;;;4988510;28;19930;-81
2022/01/08 09:18:10;;;;;;;;;;;8.50;99.90;;;;;;4997940;28;19925;-80
2022/01/08 09:20:38;;;;;;;;;;;8.60;99.90;;;;;;4989546;28;19930;-81
2022/01/08 09:23:06;;;;;;;;;;;9.00;99.90;;;;;;4984397;28;19940;-82
2022/01/08 09:25:34;;;;;;;;;;;8.60;99.90;;;;;;4997207;28;20090;-81
2022/01/08 09:28:03;;;;;;;;;;;8.70;99.90;;;;;;4954169;28;19933;-81
2022/01/08 09:30:31;;;;;;;;;;;8.70;99.90;;;;;;4983387;28;19948;-81
2022/01/08 09:33:00;;;;;;;;;;;9.40;99.90;;;;;;4996362;28;19926;-81
2022/01/08 09:35:28;;;;;;;;;;;8.80;99.90;;;;;;4984804;28;19930;-83
2022/01/08 09:37:56;;;;;;;;;;;8.90;99.90;;;;;;4978933;28;19934;-81
2022/01/08 09:40:24;;;;;;;;;;;9.00;99.90;;;;;;4999789;28;19930;-82
2022/01/08 09:42:54;;;;;;;;;;;8.90;99.90;;;;;;4986224;28;19933;-80
2022/01/08 09:45:27;;;;;;;;;;;8.90;99.90;;;;;;4985442;28;19932;-82
2022/01/08 09:47:54;;;;;;;;;;;9.00;99.90;;;;;;4982729;28;19932;-80
2022/01/08 09:50:22;;;;;;;;;;;9.00;99.90;;;;;;4996218;28;19926;-81
2022/01/08 09:52:57;;;;;;;;;;;9.00;99.90;;;;;;4644919;28;9999675;-81
2022/01/08 09:55:30;;;;;;;;;;;9.10;99.90;;;;;;4985906;28;19933;-81
2022/01/08 09:57:59;;;;;;;;;;;9.20;99.90;;;;;;5010419;28;19936;-84
2022/01/08 10:00:30;;;;;;;;;;;9.20;99.90;;;;;;4996672;28;19930;-80
2022/01/08 10:03:14;;;;;;;;;;;9.20;99.90;;;;;;4984230;28;19936;-80
2022/01/08 10:05:48;;;;;;;;;;;9.20;99.90;;;;;;4983094;28;20395;-80
2022/01/08 10:08:40;;;;;;;;;;;9.20;99.90;;;;;;4972180;28;19941;-79
2022/01/08 10:11:09;;;;;;;;;;;9.30;99.90;;;;;;4982587;28;19937;-81
2022/01/08 10:13:40;;;;;;;;;;;9.50;99.90;;;;;;4981933;28;19937;-86
2022/01/08 10:19:18;;;;;;;;;;;9.40;99.90;;;;;;4994225;28;19926;-81
2022/01/08 10:21:50;;;;;;;;;;;9.40;99.90;;;;;;4985113;28;19933;-82
2022/01/08 10:24:28;;;;;;;;;;;9.40;99.90;;;;;;4974530;28;19930;-80
2022/01/08 10:27:02;;;;;;;;;;;9.40;99.90;;;;;;4994651;28;19930;-80
2022/01/08 10:29:31;;;;;;;;;;;9.40;99.90;;;;;;4997914;28;20488;-78
2022/01/08 10:32:00;;;;;;;;;;;8.40;99.90;;;;;;4983367;28;19930;-78
2022/01/08 10:34:30;;;;;;;;;;;9.40;99.90;;;;;;4995797;28;19936;-80
2022/01/08 10:37:05;;;;;;;;;;;9.40;99.90;;;;;;5001641;28;19925;-82
2022/01/08 10:39:38;;;;;;;;;;;9.40;99.90;;;;;;4991631;28;19933;-78
2022/01/08 10:42:13;;;;;;;;;;;9.40;99.90;;;;;;5001819;28;19941;-79
2022/01/08 10:44:42;;;;;;;;;;;9.40;99.90;;;;;;4982477;28;19929;-79
2022/01/08 10:47:18;;;;;;;;;;;9.40;99.90;;;;;;4976103;28;19929;-79
2022/01/08 10:49:47;;;;;;;;;;;9.20;99.90;;;;;;5000493;28;19933;-80
2022/01/08 10:52:18;;;;;;;;;;;9.40;99.90;;;;;;5000000;28;19926;-82
2022/01/08 10:54:53;;;;;;;;;;;9.50;99.90;;;;;;5002172;28;19930;-78
2022/01/08 10:57:31;;;;;;;;;;;9.40;99.90;;;;;;4998344;28;19938;-80
2022/01/08 10:59:59;;;;;;;;;;;9.40;99.90;;;;;;4998351;28;20277;-79
2022/01/08 11:02:29;;;;;;;;;;;9.50;99.90;;;;;;4999751;28;19933;-79
2022/01/08 11:05:01;;;;;;;;;;;9.50;99.90;;;;;;4996054;28;20390;-78
2022/01/08 11:07:32;;;;;;;;;;;9.50;99.90;;;;;;5000821;28;19926;-78
2022/01/08 11:10:06;;;;;;;;;;;9.60;99.90;;;;;;5013877;28;19925;-78
2022/01/08 11:12:39;;;;;;;;;;;9.50;99.90;;;;;;4999505;28;19930;-78
2022/01/08 11:17:56;;;;;;;;;;;9.60;99.90;;;;;;4968603;28;19930;-78
2022/01/08 11:20:48;;;;;;;;;;;9.60;99.90;;;;;;4992830;28;19940;-77
2022/01/08 11:23:19;;;;;;;;;;;9.60;99.90;;;;;;4984961;28;19945;-80
2022/01/08 11:25:48;;;;;;;;;;;9.60;99.90;;;;;;4993853;28;19930;-77
2022/01/08 11:28:16;;;;;;;;;;;9.60;99.90;;;;;;4986508;28;19934;-80
2022/01/08 11:30:53;;;;;;;;;;;9.70;99.90;;;;;;5004607;28;19934;-80
2022/01/08 11:33:29;;;;;;;;;;;9.70;99.90;;;;;;5000769;28;19952;-80
2022/01/08 11:35:59;;;;;;;;;;;9.70;99.90;;;;;;5003026;28;19945;-79
2022/01/08 11:38:27;;;;;;;;;;;9.70;99.90;;;;;;4986441;28;19940;-83
2022/01/08 11:40:57;;;;;;;;;;;9.70;99.90;;;;;;5002771;28;19929;-81
2022/01/08 11:43:26;;;;;;;;;;;9.70;99.90;;;;;;5006092;28;19941;-78
2022/01/08 11:45:56;;;;;;;;;;;9.80;99.90;;;;;;4982902;28;19935;-83
2022/01/08 11:48:32;;;;;;;;;;;9.80;99.90;;;;;;4965007;28;19940;-79
2022/01/08 11:51:04;;;;;;;;;;;10.00;99.90;;;;;;4978315;28;19981;-81
2022/01/08 11:53:33;;;;;;;;;;;9.80;99.90;;;;;;4957312;28;19941;-82
2022/01/08 11:56:03;;;;;;;;;;;9.90;99.90;;;;;;4967112;28;20347;-80
2022/01/08 11:58:35;;;;;;;;;;;9.80;99.90;;;;;;4950413;28;19934;-82
2022/01/08 12:01:04;;;;;;;;;;;9.80;99.90;;;;;;4967165;28;19956;-80
2022/01/08 12:03:40;;;;;;;;;;;9.90;99.90;;;;;;4981504;28;20095;-81
2022/01/08 12:06:26;;;;;;;;;;;9.90;99.90;;;;;;4967619;28;19942;-82
2022/01/08 12:09:24;;;;;;;;;;;9.90;99.90;;;;;;4965618;28;19934;-82
2022/01/08 12:11:55;;;;;;;;;;;10.00;99.90;;;;;;4983340;28;19934;-86
2022/01/08 12:14:38;;;;;;;;;;;9.90;99.90;;;;;;4966321;28;19937;-80
2022/01/08 12:17:17;;;;;;;;;;;10.00;99.90;;;;;;4981865;28;19938;-77
2022/01/08 12:19:49;;;;;;;;;;;10.00;99.90;;;;;;4990399;28;19930;-83
2022/01/08 12:22:20;;;;;;;;;;;10.00;99.90;;;;;;4960106;28;19934;-81
2022/01/08 12:24:53;;;;;;;;;;;10.00;99.90;;;;;;4947464;28;19934;-81
2022/01/08 12:27:33;;;;;;;;;;;10.00;99.90;;;;;;4980820;28;19930;-78
2022/01/08 12:30:02;;;;;;;;;;;10.00;99.90;;;;;;4950008;28;20003;-79
2022/01/08 12:32:39;;;;;;;;;;;10.10;99.90;;;;;;4982760;28;19927;-82
2022/01/08 12:35:21;;;;;;;;;;;10.10;99.90;;;;;;4981789;28;19934;-87
2022/01/08 12:37:56;;;;;;;;;;;10.10;99.90;;;;;;4987558;28;19933;-78
2022/01/08 12:40:38;;;;;;;;;;;10.10;99.90;;;;;;4954973;28;19941;-80
2022/01/08 12:43:16;;;;;;;;;;;10.10;99.90;;;;;;4983321;28;19938;-79
2022/01/08 12:45:46;;;;;;;;;;;9.20;99.90;;;;;;4970491;28;19930;-79
2022/01/08 12:48:17;;;;;;;;;;;10.10;99.90;;;;;;4970589;28;19929;-78
2022/01/08 12:50:56;;;;;;;;;;;10.10;99.90;;;;;;4948832;28;19942;-81
2022/01/08 12:53:28;;;;;;;;;;;10.10;99.90;;;;;;4950249;28;19942;-80
2022/01/08 12:55:55;;;;;;;;;;;10.00;99.90;;;;;;4954770;28;19935;-80
2022/01/08 12:58:26;;;;;;;;;;;10.10;99.90;;;;;;4621260;28;10000058;-80
2022/01/08 13:00:56;;;;;;;;;;;10.10;99.90;;;;;;4928856;28;19945;-81
2022/01/08 13:03:28;;;;;;;;;;;10.00;99.90;;;;;;4961158;28;19930;-78
2022/01/08 13:05:57;;;;;;;;;;;10.10;99.90;;;;;;4951157;28;19927;-81
2022/01/08 13:08:26;;;;;;;;;;;10.10;99.90;;;;;;4977906;28;19937;-78
2022/01/08 13:11:00;;;;;;;;;;;10.10;99.90;;;;;;4944028;28;19937;-78
2022/01/08 13:13:48;;;;;;;;;;;10.10;99.90;;;;;;4962861;28;19926;-81
2022/01/08 13:16:17;;;;;;;;;;;10.10;99.90;;;;;;4973632;28;19930;-77
2022/01/08 13:18:50;;;;;;;;;;;10.10;99.90;;;;;;4965360;28;19930;-78
2022/01/08 13:21:19;;;;;;;;;;;10.00;99.90;;;;;;4962891;28;19930;-85
2022/01/08 13:23:48;;;;;;;;;;;10.00;99.90;;;;;;4974772;28;19934;-78
2022/01/08 13:26:24;;;;;;;;;;;10.00;99.90;;;;;;4927902;28;19930;-78
2022/01/08 13:28:52;;;;;;;;;;;10.00;99.90;;;;;;4922318;28;20244;-79
2022/01/08 13:31:45;;;;;;;;;;;10.00;99.90;;;;;;4959121;28;19960;-79
2022/01/08 13:34:14;;;;;;;;;;;10.00;99.90;;;;;;4929219;28;19957;-78
2022/01/08 13:36:51;;;;;;;;;;;10.00;99.90;;;;;;4964738;28;19930;-79
2022/01/08 13:39:25;;;;;;;;;;;10.00;99.90;;;;;;4949382;28;19934;-78
2022/01/08 13:42:04;;;;;;;;;;;10.00;99.90;;;;;;4976909;28;19926;-77
2022/01/08 13:44:35;;;;;;;;;;;10.00;99.90;;;;;;4960733;28;19922;-77
2022/01/08 13:47:03;;;;;;;;;;;10.10;99.90;;;;;;4965303;28;19926;-77
2022/01/08 13:49:32;;;;;;;;;;;10.00;99.90;;;;;;4945046;28;19934;-78
2022/01/08 13:52:01;;;;;;;;;;;10.10;99.90;;;;;;4962136;28;19933;-79
2022/01/08 13:54:35;;;;;;;;;;;9.20;99.90;;;;;;4945292;28;19937;-79
2022/01/08 13:57:14;;;;;;;;;;;10.10;99.90;;;;;;4960729;28;20821;-77
2022/01/08 13:59:43;;;;;;;;;;;10.10;99.90;;;;;;4969914;28;19942;-80
2022/01/08 14:02:10;;;;;;;;;;;10.10;99.90;;;;;;4958042;28;19930;-79
2022/01/08 14:04:42;;;;;;;;;;;10.10;99.90;;;;;;4946612;28;19934;-79
2022/01/08 14:07:10;;;;;;;;;;;10.20;99.90;;;;;;4963492;28;19930;-84
2022/01/08 14:09:39;;;;;;;;;;;10.10;99.90;;;;;;4973744;28;20584;-78
2022/01/08 14:12:14;;;;;;;;;;;10.10;99.90;;;;;;4973246;28;19945;-80
2022/01/08 14:14:49;;;;;;;;;;;10.40;99.90;;;;;;4959025;28;19934;-78
2022/01/08 14:17:17;;;;;;;;;;;10.20;99.90;;;;;;4971723;28;19957;-78
2022/01/08 14:19:56;;;;;;;;;;;10.20;99.90;;;;;;4962200;28;19930;-82
2022/01/08 14:22:29;;;;;;;;;;;10.20;99.90;;;;;;4943685;28;20235;-78
2022/01/08 14:24:59;;;;;;;;;;;10.20;99.90;;;;;;4944091;28;20046;-79
2022/01/08 14:27:27;;;;;;;;;;;10.30;99.90;;;;;;4958484;28;19946;-78
2022/01/08 14:30:01;;;;;;;;;;;10.30;99.90;;;;;;4941656;28;19934;-82
2022/01/08 14:32:29;;;;;;;;;;;10.30;99.90;;;;;;4970925;28;19945;-83
2022/01/08 14:35:02;;;;;;;;;;;10.30;99.90;;;;;;4972712;28;20176;-80
2022/01/08 14:38:01;;;;;;;;;;;10.30;99.90;;;;;;4957447;28;19934;-80
2022/01/08 14:40:56;;;;;;;;;;;10.30;99.90;;;;;;4958276;28;19934;-78
2022/01/08 14:43:32;;;;;;;;;;;10.30;99.90;;;;;;4933199;28;19926;-82
2022/01/08 14:46:00;;;;;;;;;;;10.20;99.90;;;;;;4970871;28;20012;-83
2022/01/08 14:48:28;;;;;;;;;;;10.20;99.90;;;;;;4957329;28;19933;-79
2022/01/08 14:51:00;;;;;;;;;;;10.20;99.90;;;;;;4952089;28;19926;-78
2022/01/08 14:53:30;;;;;;;;;;;10.20;99.90;;;;;;4963215;28;19927;-82
2022/01/08 14:56:11;;;;;;;;;;;10.20;99.90;;;;;;4958285;28;19926;-77
2022/01/08 14:58:39;;;;;;;;;;;11.50;99.90;;;;;;4956278;28;20217;-79
2022/01/08 15:01:07;;;;;;;;;;;10.10;99.90;;;;;;4964876;28;19938;-80
2022/01/08 15:03:35;;;;;;;;;;;10.10;99.90;;;;;;4621901;28;9999909;-77
2022/01/08 15:06:04;;;;;;;;;;;10.10;99.90;;;;;;4963107;28;19926;-79
2022/01/08 15:08:31;;;;;;;;;;;10.10;99.90;;;;;;4961773;28;19927;-77
2022/01/08 15:11:03;;;;;;;;;;;10.10;99.90;;;;;;4964258;28;19935;-78
2022/01/08 15:13:30;;;;;;;;;;;10.10;99.90;;;;;;4944653;29;19938;-78
2022/01/08 15:16:04;;;;;;;;;;;10.10;99.90;;;;;;4971057;28;19934;-78
2022/01/08 15:18:38;;;;;;;;;;;10.10;99.90;;;;;;4933299;28;20342;-78
2022/01/08 15:21:06;;;;;;;;;;;10.10;99.90;;;;;;4967815;28;19949;-78